Time;durP1;ratioP1;P1;durP2;ratioP2;P2;SDS_P1;SDS_P2;PMS_P1;PMS_P2;Temp;Humidity;BMP_temperature;BMP_pressure;BME280_temperature;BME280_humidity;BME280_pressure;Samples;Min_cycle;Max_cycle;Signal;HPM_P1;HPM_P2
2024/04/13 00:01:28;;;;;;;32.30;25.60;;;;;;;13.50;66.25;101309.73;111373;1252;22431;-71
2024/04/13 00:03:58;;;;;;;34.10;25.80;;;;;;;13.50;66.18;101305.98;111228;1252;22184;-69
2024/04/13 00:06:27;;;;;;;33.30;26.40;;;;;;;13.51;66.07;101299.20;111362;1252;21959;-69
2024/04/13 00:08:56;;;;;;;29.90;24.40;;;;;;;13.52;66.07;101296.64;111518;1242;22747;-68
2024/04/13 00:11:24;;;;;;;28.40;23.70;;;;;;;13.54;65.94;101297.07;111499;1253;23607;-69
2024/04/13 00:13:53;;;;;;;27.00;21.90;;;;;;;13.55;65.86;101295.77;111515;1248;21948;-68
2024/04/13 00:16:22;;;;;;;31.30;24.60;;;;;;;13.56;65.85;101291.61;111239;1253;23573;-69
2024/04/13 00:18:50;;;;;;;31.90;23.30;;;;;;;13.57;65.83;101294.19;111260;1253;21964;-68
2024/04/13 00:21:19;;;;;;;30.30;22.90;;;;;;;13.58;65.70;101295.02;111359;1253;22051;-70
2024/04/13 00:23:48;;;;;;;25.70;17.60;;;;;;;13.57;65.57;101291.88;111572;1252;21974;-69
2024/04/13 00:26:17;;;;;;;18.40;14.20;;;;;;;13.60;65.15;101293.66;111581;1252;21995;-68
2024/04/13 00:28:47;;;;;;;17.90;13.40;;;;;;;13.64;64.92;101291.63;111499;1253;23035;-68
2024/04/13 00:31:17;;;;;;;14.00;10.90;;;;;;;13.68;64.59;101291.36;111581;1252;21951;-69
2024/04/13 00:33:47;;;;;;;16.20;10.80;;;;;;;13.72;64.42;101289.43;111488;1252;21954;-68
2024/04/13 00:36:18;;;;;;;16.30;10.10;;;;;;;13.77;64.07;101289.81;111535;1252;23777;-69
2024/04/13 00:38:47;;;;;;;13.50;8.00;;;;;;;13.82;63.78;101287.88;111260;1252;21940;-69
2024/04/13 00:41:15;;;;;;;10.60;7.70;;;;;;;13.87;63.20;101282.39;111477;1252;21949;-68
2024/04/13 00:43:46;;;;;;;10.40;6.90;;;;;;;13.92;62.81;101279.95;111575;1253;21960;-71
2024/04/13 00:46:23;;;;;;;14.50;8.30;;;;;;;13.96;62.41;101276.84;111563;1251;21939;-69
2024/04/13 00:48:53;;;;;;;10.10;7.20;;;;;;;13.98;62.19;101274.38;111546;1252;22535;-69
2024/04/13 00:51:23;;;;;;;13.70;7.10;;;;;;;14.02;62.08;101277.34;111594;1253;22159;-69
2024/04/13 00:53:53;;;;;;;12.90;7.90;;;;;;;14.04;61.97;101278.39;111359;1252;181488;-69
2024/04/13 00:56:23;;;;;;;10.50;8.10;;;;;;;14.08;61.97;101282.75;111530;1253;22753;-68
2024/04/13 00:58:52;;;;;;;13.30;7.50;;;;;;;14.11;61.77;101285.87;111328;1253;21979;-69
2024/04/13 01:01:23;;;;;;;11.50;7.20;;;;;;;14.14;61.67;101287.60;111614;1252;21959;-69
2024/04/13 01:03:52;;;;;;;10.90;7.20;;;;;;;14.17;61.67;101294.11;111364;1253;22137;-68
2024/04/13 01:06:21;;;;;;;12.30;7.50;;;;;;;14.20;61.45;101293.90;111424;1253;23595;-70
2024/04/13 01:08:50;;;;;;;12.20;7.90;;;;;;;14.22;61.34;101294.11;111538;1252;21949;-71
2024/04/13 01:11:19;;;;;;;15.90;8.10;;;;;;;14.24;61.19;101292.92;111504;1253;24111;-69
2024/04/13 01:13:48;;;;;;;9.70;6.70;;;;;;;14.25;61.03;101293.40;111537;1253;23627;-68
2024/04/13 01:16:26;;;;;;;9.80;7.20;;;;;;;14.26;61.02;101293.29;111532;1253;23579;-69
2024/04/13 01:18:56;;;;;;;14.90;7.90;;;;;;;14.28;61.10;101294.04;111499;1252;22758;-69
2024/04/13 01:21:26;;;;;;;10.60;7.40;;;;;;;14.30;61.07;101288.77;111500;1253;21960;-69
2024/04/13 01:24:05;;;;;;;9.60;7.10;;;;;;;14.30;60.97;101280.45;111628;1252;22746;-68
2024/04/13 01:26:38;;;;;;;10.90;7.20;;;;;;;14.28;60.96;101282.56;111506;1253;22652;-69
2024/04/13 01:29:08;;;;;;;10.20;7.30;;;;;;;14.25;61.05;101280.83;111560;1253;22002;-68
2024/04/13 01:31:37;;;;;;;11.00;7.00;;;;;;;14.23;61.05;101277.20;111566;1253;23072;-69
2024/04/13 01:34:07;;;;;;;11.10;7.00;;;;;;;14.21;61.04;101277.57;111577;1252;22204;-67
2024/04/13 01:36:38;;;;;;;14.90;7.40;;;;;;;14.18;61.15;101279.88;111495;1253;23029;-68
2024/04/13 01:39:12;;;;;;;9.90;7.00;;;;;;;14.17;61.27;101279.59;111539;1252;21973;-68
2024/04/13 01:41:45;;;;;;;15.60;7.50;;;;;;;14.16;61.39;101278.65;111541;1252;23575;-68
2024/04/13 01:44:15;;;;;;;10.60;7.60;;;;;;;14.15;61.42;101281.35;111554;1252;22081;-68
2024/04/13 01:46:44;;;;;;;11.30;6.80;;;;;;;14.16;61.64;101282.33;111490;1245;23025;-70
2024/04/13 01:49:13;;;;;;;11.70;6.80;;;;;;;14.17;61.67;101284.04;111494;1252;21958;-70
2024/04/13 01:51:42;;;;;;;11.50;6.30;;;;;;;14.18;61.79;101283.05;111516;1252;23677;-69
2024/04/13 01:54:10;;;;;;;9.70;6.10;;;;;;;14.19;61.68;101285.98;111489;1253;21947;-69
2024/04/13 01:56:39;;;;;;;9.30;6.50;;;;;;;14.20;61.76;101289.52;111477;1252;21954;-69
2024/04/13 01:59:08;;;;;;;10.60;6.30;;;;;;;14.18;61.79;101290.87;111519;1252;22169;-69
2024/04/13 02:01:37;;;;;;;9.40;6.50;;;;;;;14.18;61.78;101293.02;111514;1252;21934;-69
2024/04/13 02:04:06;;;;;;;7.60;5.60;;;;;;;14.16;61.72;101295.79;111502;1252;21966;-69
2024/04/13 02:06:35;;;;;;;7.60;5.00;;;;;;;14.13;61.75;101295.13;111498;1245;21955;-69
2024/04/13 02:09:04;;;;;;;14.10;6.00;;;;;;;14.10;61.89;101287.36;111252;1251;21954;-69
2024/04/13 02:11:32;;;;;;;10.30;6.60;;;;;;;14.09;61.93;101283.40;111490;1253;21962;-68
2024/04/13 02:14:01;;;;;;;9.30;5.70;;;;;;;14.08;61.97;101280.11;111473;1252;22107;-69
2024/04/13 02:16:30;;;;;;;11.10;6.20;;;;;;;14.07;62.20;101276.95;111569;1252;23650;-69
2024/04/13 02:18:59;;;;;;;7.50;5.30;;;;;;;14.07;62.25;101274.65;111237;1252;21954;-69
2024/04/13 02:21:28;;;;;;;9.50;5.60;;;;;;;14.07;62.39;101272.73;111545;1252;21961;-70
2024/04/13 02:23:57;;;;;;;12.60;6.20;;;;;;;14.07;62.28;101275.93;111488;1252;21964;-73
2024/04/13 02:26:26;;;;;;;7.00;5.50;;;;;;;14.06;62.39;101279.67;111525;1240;21956;-73
2024/04/13 02:28:54;;;;;;;9.60;5.90;;;;;;;14.06;62.43;101284.82;111557;1252;23546;-71
2024/04/13 02:31:24;;;;;;;6.00;5.00;;;;;;;14.06;62.43;101286.06;111540;1252;24271;-68
2024/04/13 02:33:52;;;;;;;8.20;5.30;;;;;;;14.06;62.55;101284.69;111619;1252;22106;-69
2024/04/13 02:36:21;;;;;;;7.00;5.10;;;;;;;14.06;62.45;101286.76;111634;1252;21938;-68
2024/04/13 02:38:50;;;;;;;7.90;5.40;;;;;;;14.07;62.56;101286.73;111626;1252;21955;-68
2024/04/13 02:41:19;;;;;;;11.10;6.00;;;;;;;14.07;62.49;101287.61;111568;1252;21980;-69
2024/04/13 02:43:52;;;;;;;8.90;6.20;;;;;;;14.07;62.49;101288.86;111518;1252;21947;-68
2024/04/13 02:46:23;;;;;;;13.10;5.70;;;;;;;14.05;62.53;101286.34;111604;1252;21961;-68
2024/04/13 02:48:52;;;;;;;9.80;5.90;;;;;;;14.04;62.58;101289.56;111526;1252;23535;-67
2024/04/13 02:51:21;;;;;;;9.80;6.40;;;;;;;14.03;62.78;101288.42;111486;1252;22847;-68
2024/04/13 02:53:49;;;;;;;7.70;5.80;;;;;;;14.04;62.78;101290.80;111457;1252;23039;-68
2024/04/13 02:56:18;;;;;;;10.20;5.80;;;;;;;14.05;62.96;101289.17;111262;1252;21959;-68
2024/04/13 02:58:47;;;;;;;8.20;5.20;;;;;;;14.06;62.98;101290.83;111204;1252;21949;-68
2024/04/13 03:01:16;;;;;;;11.00;5.70;;;;;;;14.07;63.09;101289.72;111503;1252;21943;-68
2024/04/13 03:03:46;;;;;;;7.80;6.20;;;;;;;14.10;63.07;101292.02;111187;1252;22943;-67
2024/04/13 03:06:15;;;;;;;8.70;5.90;;;;;;;14.11;63.17;101291.02;111497;1252;21943;-67
2024/04/13 03:08:44;;;;;;;9.40;8.40;;;;;;;14.14;63.15;101284.47;111500;1252;23012;-66
2024/04/13 03:11:13;;;;;;;7.70;6.60;;;;;;;14.15;63.16;101279.39;111215;1252;23012;-67
2024/04/13 03:13:42;;;;;;;8.80;5.50;;;;;;;14.16;63.15;101279.66;111280;1252;22006;-68
2024/04/13 03:16:12;;;;;;;8.30;5.20;;;;;;;14.17;63.36;101287.37;111345;1252;22017;-67
2024/04/13 03:18:43;;;;;;;11.60;6.00;;;;;;;14.19;63.33;101290.09;111274;1251;23672;-67
2024/04/13 03:21:13;;;;;;;;;;;;;;;14.19;63.25;101290.07;111250;1252;23122;-67
2024/04/13 03:23:42;;;;;;;9.10;5.80;;;;;;;14.12;63.60;101290.08;111524;1252;23025;-67
2024/04/13 03:26:11;;;;;;;7.10;5.70;;;;;;;14.14;63.55;101294.69;111516;1252;21966;-68
2024/04/13 03:28:40;;;;;;;7.00;6.30;;;;;;;14.17;63.62;101294.11;110851;1252;21949;-69
2024/04/13 03:31:08;;;;;;;6.70;5.60;;;;;;;14.21;63.61;101297.36;111216;1252;23038;-67
2024/04/13 03:33:38;;;;;;;9.40;6.30;;;;;;;14.23;63.57;101302.36;110985;1252;23569;-68
2024/04/13 03:36:07;;;;;;;8.20;5.90;;;;;;;14.26;63.59;101306.45;111257;1252;21958;-68
2024/04/13 03:38:36;;;;;;;6.90;5.60;;;;;;;14.26;63.68;101306.79;111245;1252;21951;-68
2024/04/13 03:41:07;;;;;;;7.50;6.40;;;;;;;14.25;63.73;101303.28;111294;1252;21972;-68
2024/04/13 03:43:37;;;;;;;6.30;5.70;;;;;;;14.24;63.67;101303.36;111490;1247;21943;-68
2024/04/13 03:46:07;;;;;;;7.80;6.30;;;;;;;14.19;63.71;101304.61;111234;1251;23542;-68
2024/04/13 03:48:41;;;;;;;10.00;6.50;;;;;;;14.15;63.82;101303.84;111239;1244;21971;-69
2024/04/13 03:51:11;;;;;;;10.40;6.40;;;;;;;14.12;64.08;101298.94;111518;1252;22937;-69
2024/04/13 03:53:40;;;;;;;9.20;6.80;;;;;;;14.10;64.18;101301.34;111488;1252;21959;-70
2024/04/13 03:56:09;;;;;;;10.00;6.20;;;;;;;14.09;64.22;101305.14;111499;1251;21958;-70
2024/04/13 03:58:38;;;;;;;7.90;5.80;;;;;;;14.07;64.20;101304.74;111518;1250;23569;-70
2024/04/13 04:01:07;;;;;;;10.40;6.10;;;;;;;14.05;64.30;101302.08;111302;1252;21947;-71
2024/04/13 04:03:35;;;;;;;13.80;7.50;;;;;;;14.04;64.39;101300.94;111505;1252;21952;-70
2024/04/13 04:06:05;;;;;;;18.20;8.10;;;;;;;14.03;64.43;101296.90;111537;1252;22271;-68
2024/04/13 04:08:34;;;;;;;8.00;5.80;;;;;;;14.02;64.54;101293.80;111515;1252;21952;-69
2024/04/13 04:11:03;;;;;;;8.60;6.00;;;;;;;14.01;64.65;101294.01;111510;1252;23618;-68
2024/04/13 04:13:32;;;;;;;8.20;6.50;;;;;;;14.01;64.72;101296.35;111515;1252;21983;-68
2024/04/13 04:16:02;;;;;;;7.70;6.50;;;;;;;13.99;65.02;101296.63;111544;1252;22940;-69
2024/04/13 04:18:31;;;;;;;6.80;6.10;;;;;;;13.98;64.96;101295.46;111498;1252;22011;-69
2024/04/13 04:21:00;;;;;;;11.50;6.90;;;;;;;13.98;64.84;101294.92;111641;1252;22807;-67
2024/04/13 04:23:28;;;;;;;8.20;6.60;;;;;;;13.97;64.91;101295.89;111625;1252;23542;-68
2024/04/13 04:25:57;;;;;;;7.70;6.90;;;;;;;13.95;65.00;101292.82;111576;1252;21962;-68
2024/04/13 04:28:27;;;;;;;9.80;6.30;;;;;;;13.95;65.17;101291.61;111308;1252;23663;-67
2024/04/13 04:31:13;;;;;;;8.30;6.50;;;;;;;13.95;65.10;101292.83;111183;1252;23703;-69
2024/04/13 04:33:42;;;;;;;7.90;5.80;;;;;;;13.95;65.27;101300.94;111488;1252;21955;-70
2024/04/13 04:36:11;;;;;;;10.60;7.50;;;;;;;13.97;65.22;101297.81;111567;1252;23009;-67
2024/04/13 04:38:40;;;;;;;10.40;7.50;;;;;;;13.97;65.18;101297.30;111536;1252;21979;-68
2024/04/13 04:41:08;;;;;;;8.70;6.40;;;;;;;13.99;65.19;101300.86;111569;1252;21963;-67
2024/04/13 04:43:38;;;;;;;8.90;6.40;;;;;;;14.01;65.35;101303.74;111287;1252;21969;-68
2024/04/13 04:46:09;;;;;;;11.40;7.20;;;;;;;14.02;65.37;101304.21;111445;1252;21958;-69
2024/04/13 04:48:38;;;;;;;8.70;7.10;;;;;;;14.03;65.36;101300.96;111549;1245;21951;-68
2024/04/13 04:51:07;;;;;;;9.60;6.90;;;;;;;14.06;65.30;101300.55;111148;1252;21962;-68
2024/04/13 04:53:37;;;;;;;12.30;7.40;;;;;;;14.09;65.20;101300.21;111686;1252;22503;-70
2024/04/13 04:56:06;;;;;;;18.90;8.80;;;;;;;14.09;65.21;101300.90;111538;1247;24238;-68
2024/04/13 04:58:35;;;;;;;11.10;7.10;;;;;;;14.08;65.33;101302.36;111389;1252;21954;-70
2024/04/13 05:01:06;;;;;;;11.10;7.60;;;;;;;14.10;65.52;101303.14;111343;1252;21960;-67
2024/04/13 05:03:35;;;;;;;9.00;6.70;;;;;;;14.13;65.48;101301.84;111545;1252;21949;-68
2024/04/13 05:06:05;;;;;;;28.10;10.10;;;;;;;14.18;65.44;101304.36;111538;1246;21967;-67
2024/04/13 05:08:35;;;;;;;9.70;6.30;;;;;;;14.23;65.46;101303.78;111437;1245;21946;-68
2024/04/13 05:11:04;;;;;;;6.90;6.00;;;;;;;14.27;65.22;101302.80;111433;1252;22425;-68
2024/04/13 05:13:33;;;;;;;8.00;6.00;;;;;;;14.32;65.28;101302.67;111292;1252;21938;-68
2024/04/13 05:16:04;;;;;;;12.50;6.20;;;;;;;14.36;65.14;101299.34;111491;1252;21963;-68
2024/04/13 05:18:33;;;;;;;13.80;7.10;;;;;;;14.39;65.08;101294.15;111491;1252;23672;-68
2024/04/13 05:21:02;;;;;;;9.60;6.70;;;;;;;14.41;64.96;101290.45;111491;1252;22111;-68
2024/04/13 05:23:31;;;;;;;7.90;6.00;;;;;;;14.45;64.79;101291.44;111509;1252;21963;-67
2024/04/13 05:25:59;;;;;;;8.40;6.50;;;;;;;14.50;64.94;101290.42;111524;1252;22923;-67
2024/04/13 05:28:28;;;;;;;6.90;6.00;;;;;;;14.56;64.89;101291.20;111519;1252;24225;-68
2024/04/13 05:30:56;;;;;;;10.00;6.30;;;;;;;14.67;64.79;101294.36;111558;1252;21971;-66
2024/04/13 05:33:27;;;;;;;11.10;6.80;;;;;;;14.76;64.47;101298.99;111580;1252;21991;-70
2024/04/13 05:35:56;;;;;;;12.20;7.10;;;;;;;14.83;64.20;101301.50;111514;1252;21963;-68
2024/04/13 05:38:26;;;;;;;7.70;6.10;;;;;;;14.88;64.03;101293.98;111638;1252;22920;-69
2024/04/13 05:40:56;;;;;;;8.00;7.20;;;;;;;14.92;63.94;101294.75;111482;1252;21952;-68
2024/04/13 05:43:25;;;;;;;7.50;6.20;;;;;;;14.99;63.94;101297.86;111495;1252;21950;-69
2024/04/13 05:45:54;;;;;;;9.10;6.40;;;;;;;15.06;64.00;101297.30;111449;1252;21965;-71
2024/04/13 05:48:23;;;;;;;8.00;6.70;;;;;;;15.17;63.57;101298.66;111306;1252;22443;-71
2024/04/13 05:50:53;;;;;;;10.40;6.80;;;;;;;15.30;63.35;101293.38;111515;1252;22153;-70
2024/04/13 05:53:27;;;;;;;10.60;6.60;;;;;;;15.43;62.82;101294.17;111464;1252;23679;-69
2024/04/13 05:55:56;;;;;;;7.90;6.10;;;;;;;15.57;62.44;101295.30;111489;1252;23700;-70
2024/04/13 05:58:24;;;;;;;7.10;6.40;;;;;;;15.70;62.22;101293.05;111479;1252;22129;-71
2024/04/13 06:00:53;;;;;;;12.00;7.30;;;;;;;15.84;61.75;101293.20;111484;1252;23579;-69
2024/04/13 06:03:23;;;;;;;7.20;6.20;;;;;;;15.97;61.58;101296.73;111321;1252;22020;-69
2024/04/13 06:05:52;;;;;;;6.80;6.20;;;;;;;16.12;61.42;101299.39;111622;1252;23569;-70
2024/04/13 06:08:21;;;;;;;9.80;5.80;;;;;;;16.30;60.93;101294.48;111599;1252;22117;-69
2024/04/13 06:10:49;;;;;;;7.50;5.50;;;;;;;16.46;60.43;101297.50;111516;1245;21960;-70
2024/04/13 06:13:18;;;;;;;9.20;5.90;;;;;;;16.65;60.15;101299.46;111507;1252;21952;-69
2024/04/13 06:15:47;;;;;;;7.40;5.70;;;;;;;16.92;59.60;101293.89;111325;1252;22727;-70
2024/04/13 06:18:17;;;;;;;7.60;5.70;;;;;;;17.26;58.95;101294.88;111557;1252;23352;-70
2024/04/13 06:20:46;;;;;;;5.70;4.90;;;;;;;17.54;57.42;101301.03;111491;1252;23673;-70
2024/04/13 06:23:17;;;;;;;7.10;5.50;;;;;;;17.78;57.09;101300.48;111503;1252;22331;-71
2024/04/13 06:25:49;;;;;;;9.20;5.00;;;;;;;18.02;56.48;101301.11;111508;1252;21963;-70
2024/04/13 06:28:23;;;;;;;9.10;5.50;;;;;;;18.29;56.10;101310.09;111252;1252;21946;-70
2024/04/13 06:30:52;;;;;;;7.30;5.30;;;;;;;18.62;55.31;101308.70;111498;1252;21951;-70
2024/04/13 06:33:21;;;;;;;8.60;5.40;;;;;;;18.91;54.39;101302.52;111506;1252;22743;-69
2024/04/13 06:35:51;;;;;;;9.40;5.40;;;;;;;19.14;53.69;101302.57;111484;1252;21942;-70
2024/04/13 06:38:23;;;;;;;7.20;5.00;;;;;;;19.36;53.10;101301.61;111560;1252;21956;-70
2024/04/13 06:40:54;;;;;;;8.20;5.90;;;;;;;19.60;52.41;101297.09;111493;1252;23623;-69
2024/04/13 06:43:22;;;;;;;13.40;6.20;;;;;;;19.87;51.83;101294.74;111309;1252;22933;-70
2024/04/13 06:45:51;;;;;;;27.60;8.20;;;;;;;20.14;51.20;101292.00;111262;1252;21959;-69
2024/04/13 06:48:20;;;;;;;8.20;5.60;;;;;;;20.40;50.37;101294.66;111351;1253;21955;-67
2024/04/13 06:50:49;;;;;;;6.90;5.70;;;;;;;20.60;50.17;101293.83;111364;1251;21961;-68
2024/04/13 06:53:18;;;;;;;6.10;5.10;;;;;;;20.85;49.56;101291.06;111336;1253;21956;-67
2024/04/13 06:55:46;;;;;;;8.80;5.60;;;;;;;21.09;48.72;101291.31;111294;1253;21962;-68
2024/04/13 06:58:15;;;;;;;10.80;7.50;;;;;;;21.23;47.85;101291.05;111298;1253;21952;-68
2024/04/13 07:00:54;;;;;;;19.70;8.50;;;;;;;21.23;47.81;101295.92;111282;1251;21950;-68
2024/04/13 07:03:24;;;;;;;14.50;7.70;;;;;;;21.33;47.57;101297.02;111015;1253;22060;-67
2024/04/13 07:06:01;;;;;;;10.10;7.10;;;;;;;21.47;47.46;101295.48;111045;1253;21963;-66
2024/04/13 07:08:29;;;;;;;7.80;6.80;;;;;;;21.65;46.77;101294.55;110966;1253;22148;-68
2024/04/13 07:11:03;;;;;;;12.40;7.10;;;;;;;21.81;46.32;101289.56;111553;1252;21962;-68
2024/04/13 07:13:33;;;;;;;16.80;13.00;;;;;;;22.06;45.61;101284.91;111536;1252;22244;-69
2024/04/13 07:16:02;;;;;;;14.10;10.50;;;;;;;22.23;45.29;101284.16;111433;1252;22782;-68
2024/04/13 07:18:32;;;;;;;11.80;8.50;;;;;;;22.56;45.15;101285.03;111525;1252;22318;-66
2024/04/13 07:21:01;;;;;;;10.60;7.90;;;;;;;22.86;44.24;101280.39;111502;1252;21953;-68
2024/04/13 07:23:30;;;;;;;9.20;7.70;;;;;;;23.03;43.83;101279.00;111493;1252;21998;-67
2024/04/13 07:26:04;;;;;;;11.30;8.70;;;;;;;23.04;43.58;101281.59;111505;1252;21968;-66
2024/04/13 07:28:32;;;;;;;13.20;8.10;;;;;;;23.00;43.72;101281.93;111567;1252;21987;-68
2024/04/13 07:31:01;;;;;;;11.70;7.20;;;;;;;23.26;43.42;101283.64;111483;1252;21963;-68
2024/04/13 07:33:30;;;;;;;7.70;6.80;;;;;;;23.51;42.71;101282.25;111512;1252;23559;-68
2024/04/13 07:35:59;;;;;;;8.50;7.30;;;;;;;23.69;42.21;101281.75;111482;1252;22423;-68
2024/04/13 07:38:28;;;;;;;9.80;8.30;;;;;;;23.86;41.81;101279.92;111518;1252;22019;-67
2024/04/13 07:40:56;;;;;;;10.90;6.60;;;;;;;23.82;41.34;101282.66;111499;1252;21975;-68
2024/04/13 07:43:25;;;;;;;12.80;7.50;;;;;;;23.76;41.54;101283.48;111505;1252;22001;-69
2024/04/13 07:45:54;;;;;;;8.50;6.90;;;;;;;23.79;41.35;101283.23;111484;1252;21941;-71
2024/04/13 07:48:23;;;;;;;12.60;7.60;;;;;;;23.75;41.27;101280.39;111464;1252;21966;-70
2024/04/13 07:50:52;;;;;;;10.90;8.40;;;;;;;23.85;41.50;101277.83;111377;1252;21957;-70
2024/04/13 07:53:21;;;;;;;8.00;6.20;;;;;;;24.01;40.88;101274.96;111322;1244;23100;-71
2024/04/13 07:55:50;;;;;;;33.90;12.50;;;;;;;24.06;40.59;101271.72;111429;1252;25005;-70
2024/04/13 07:58:19;;;;;;;26.20;10.50;;;;;;;24.10;40.32;101272.17;111490;1251;21995;-70
2024/04/13 08:00:47;;;;;;;13.70;8.20;;;;;;;24.11;40.46;101268.83;111496;1252;23053;-69
2024/04/13 08:03:17;;;;;;;10.60;6.40;;;;;;;24.10;40.49;101259.35;111129;1252;22720;-72
2024/04/13 08:05:47;;;;;;;11.10;6.70;;;;;;;24.28;40.00;101257.70;111509;1252;21945;-71
2024/04/13 08:08:16;;;;;;;9.00;6.90;;;;;;;24.35;39.71;101257.28;111415;1252;23669;-69
2024/04/13 08:10:46;;;;;;;13.40;7.40;;;;;;;24.24;39.28;101252.79;111491;1252;22994;-74
2024/04/13 08:13:19;;;;;;;8.50;5.80;;;;;;;24.10;39.75;101254.23;111117;1249;23075;-70
2024/04/13 08:15:54;;;;;;;13.30;6.50;;;;;;;24.07;39.76;101254.33;110852;1252;23643;-69
2024/04/13 08:18:24;;;;;;;9.20;6.80;;;;;;;24.03;39.81;101252.83;111018;1252;21942;-71
2024/04/13 08:20:56;;;;;;;11.00;7.40;;;;;;;23.90;40.06;101253.71;110945;1252;21980;-69
2024/04/13 08:23:27;;;;;;;10.70;7.30;;;;;;;23.60;40.06;101259.74;110889;1252;24980;-70
2024/04/13 08:26:04;;;;;;;13.10;9.40;;;;;;;23.27;40.40;101266.45;111093;1252;22744;-71
2024/04/13 08:28:36;;;;;;;9.70;6.90;;;;;;;23.08;40.79;101264.05;111199;1252;21955;-73
2024/04/13 08:31:05;;;;;;;8.60;6.20;;;;;;;22.84;40.78;101265.00;111225;1245;23018;-70
2024/04/13 08:33:34;;;;;;;21.10;8.30;;;;;;;22.62;41.16;101265.73;111305;1252;21964;-72
2024/04/13 08:36:08;;;;;;;7.20;6.30;;;;;;;22.44;41.76;101264.10;111529;1252;21952;-72
2024/04/13 08:38:37;;;;;;;9.60;6.70;;;;;;;22.75;41.88;101258.23;111499;1240;23051;-71
2024/04/13 08:41:37;;;;;;;9.70;6.90;;;;;;;22.96;41.05;101257.84;111568;1252;21953;-70
2024/04/13 08:44:08;;;;;;;11.80;7.00;;;;;;;22.95;40.90;101258.61;111502;1252;22694;-71
2024/04/13 08:46:44;;;;;;;10.20;6.50;;;;;;;22.88;40.62;101263.05;111168;1252;22110;-71
2024/04/13 08:49:17;;;;;;;12.40;6.20;;;;;;;22.99;39.32;101264.16;111544;1241;21951;-71
2024/04/13 08:51:47;;;;;;;12.80;5.90;;;;;;;23.32;38.97;101263.22;111551;1252;23077;-71
2024/04/13 08:54:16;;;;;;;6.00;5.30;;;;;;;23.74;38.15;101263.62;111234;1252;25058;-71
2024/04/13 08:56:47;;;;;;;25.60;10.40;;;;;;;24.09;37.23;101264.65;111487;1252;23031;-67
2024/04/13 08:59:17;;;;;;;8.90;5.30;;;;;;;24.43;36.47;101263.03;111239;1252;21950;-67
2024/04/13 09:01:48;;;;;;;9.90;4.20;;;;;;;24.72;34.87;101265.41;111530;1252;21971;-67
2024/04/13 09:04:17;;;;;;;;;;;;;;;24.85;33.83;101266.39;111528;1252;23586;-67
2024/04/13 09:06:48;;;;;;;9.90;5.00;;;;;;;24.90;34.06;101266.42;111220;1252;23075;-70
2024/04/13 09:09:17;;;;;;;5.80;4.80;;;;;;;25.06;34.06;101264.04;111256;1252;21950;-67
2024/04/13 09:11:45;;;;;;;7.30;4.80;;;;;;;25.10;33.43;101263.35;111491;1252;23716;-67
2024/04/13 09:14:16;;;;;;;9.40;4.70;;;;;;;25.08;33.30;101256.55;111282;1252;23080;-67
2024/04/13 09:16:45;;;;;;;14.60;6.50;;;;;;;25.07;32.36;101258.27;111463;1252;23070;-65
2024/04/13 09:19:14;;;;;;;8.30;4.00;;;;;;;25.02;32.68;101253.37;111175;1252;21950;-67
2024/04/13 09:21:43;;;;;;;17.30;5.00;;;;;;;24.94;32.76;101246.66;111204;1252;21958;-66
2024/04/13 09:24:13;;;;;;;10.90;4.90;;;;;;;24.72;32.41;101247.45;111520;1252;22016;-68
2024/04/13 09:26:44;;;;;;;11.80;4.80;;;;;;;24.55;32.84;101246.77;111460;1252;24422;-68
2024/04/13 09:29:33;;;;;;;;;;;;;;;24.36;33.35;101256.58;111385;1252;21930;-69
2024/04/13 09:32:03;;;;;;;12.50;3.90;;;;;;;23.91;33.45;101263.11;111488;1252;23682;-67
2024/04/13 09:34:34;;;;;;;14.20;5.50;;;;;;;23.58;33.87;101261.30;111504;1252;23569;-67
2024/04/13 09:37:07;;;;;;;12.90;4.00;;;;;;;23.51;34.21;101256.67;111489;1252;21968;-68
2024/04/13 09:39:36;;;;;;;7.10;3.90;;;;;;;23.69;34.30;101257.76;111505;1252;22038;-71
2024/04/13 09:42:09;;;;;;;9.80;3.70;;;;;;;23.81;33.72;101253.48;111405;1252;24292;-70
2024/04/13 09:44:40;;;;;;;10.70;4.90;;;;;;;23.85;33.64;101250.55;111566;1252;23019;-66
2024/04/13 09:47:09;;;;;;;8.00;4.20;;;;;;;23.79;33.67;101249.38;111553;1252;22125;-71
2024/04/13 09:49:39;;;;;;;8.50;3.80;;;;;;;23.67;34.00;101245.88;111833;1252;23601;-71
2024/04/13 09:52:07;;;;;;;16.50;5.20;;;;;;;23.55;33.88;101247.04;111509;1252;22031;-64
2024/04/13 09:54:37;;;;;;;7.80;3.50;;;;;;;23.56;34.63;101245.41;111220;1252;23696;-74
2024/04/13 09:57:06;;;;;;;10.60;2.90;;;;;;;23.70;33.88;101243.73;111388;1252;21950;-70
2024/04/13 09:59:38;;;;;;;12.50;4.00;;;;;;;23.74;33.02;101241.74;111553;1252;23579;-70
2024/04/13 10:02:08;;;;;;;12.30;3.80;;;;;;;23.64;32.53;101243.19;111451;1251;22720;-71
2024/04/13 10:04:38;;;;;;;8.00;3.30;;;;;;;23.53;32.72;101240.22;111614;1238;21962;-66
2024/04/13 10:07:09;;;;;;;11.10;4.00;;;;;;;23.55;32.98;101226.90;111181;1251;21957;-69
2024/04/13 10:09:41;;;;;;;10.20;3.60;;;;;;;23.64;33.01;101220.30;111362;1247;22278;-71
2024/04/13 10:12:19;;;;;;;13.70;4.00;;;;;;;23.66;32.80;101226.34;111494;1251;21946;-73
2024/04/13 10:14:52;;;;;;;9.00;3.00;;;;;;;23.58;33.00;101224.21;111618;1238;21951;-71
2024/04/13 10:17:22;;;;;;;12.60;2.90;;;;;;;23.57;32.58;101221.76;111600;1251;21946;-69
2024/04/13 10:19:50;;;;;;;6.30;2.30;;;;;;;23.63;32.62;101220.27;111600;1251;21952;-71
2024/04/13 10:22:22;;;;;;;15.80;4.10;;;;;;;23.84;31.92;101223.27;111567;1241;21960;-75
2024/04/13 10:25:07;;;;;;;23.10;3.90;;;;;;;23.99;31.25;101227.30;111613;1251;21970;-69
2024/04/13 10:27:38;;;;;;;11.10;3.10;;;;;;;24.15;31.08;101228.09;111585;1251;21949;-73
2024/04/13 10:30:07;;;;;;;13.70;2.80;;;;;;;24.26;30.66;101229.36;111647;1251;21949;-70
2024/04/13 10:32:43;;;;;;;8.60;3.00;;;;;;;24.21;30.20;101230.98;111598;1251;21967;-70
2024/04/13 10:35:16;;;;;;;9.20;3.00;;;;;;;24.17;30.56;101225.96;111620;1251;21946;-70
2024/04/13 10:37:44;;;;;;;10.90;2.90;;;;;;;24.23;30.32;101226.82;111597;1251;22163;-71
2024/04/13 10:40:24;;;;;;;31.20;3.50;;;;;;;24.34;30.23;101227.28;111609;1242;21976;-70
2024/04/13 10:43:03;;;;;;;7.80;2.40;;;;;;;24.45;30.22;101219.25;111618;1251;21962;-69
2024/04/13 10:45:32;;;;;;;8.00;3.10;;;;;;;24.44;30.01;101215.27;111379;1251;21958;-71
2024/04/13 10:48:05;;;;;;;11.40;3.20;;;;;;;24.35;30.09;101212.02;111371;1251;21948;-70
2024/04/13 10:50:35;;;;;;;11.60;2.90;;;;;;;24.17;30.23;101209.59;111389;1251;22913;-71
2024/04/13 10:53:04;;;;;;;7.90;2.40;;;;;;;24.06;30.55;101204.85;111579;1251;23598;-70
2024/04/13 10:55:36;;;;;;;11.00;3.00;;;;;;;24.05;30.79;101204.86;111580;1251;21958;-70
2024/04/13 10:58:07;;;;;;;6.70;2.30;;;;;;;24.01;30.83;101202.15;111282;1251;21969;-69
2024/04/13 11:00:49;;;;;;;7.10;2.30;;;;;;;23.86;31.07;101204.17;111500;1251;21973;-72
2024/04/13 11:03:18;;;;;;;12.30;2.70;;;;;;;23.71;31.47;101207.09;111077;1253;23700;-70
2024/04/13 11:05:47;;;;;;;6.20;2.60;;;;;;;23.63;31.63;101203.89;111113;1253;21965;-70
2024/04/13 11:08:19;;;;;;;8.70;2.80;;;;;;;23.43;32.09;101208.29;111329;1253;21965;-72
2024/04/13 11:10:54;;;;;;;10.50;2.80;;;;;;;23.18;32.59;101202.41;111401;1253;23733;-73
2024/04/13 11:13:24;;;;;;;6.00;2.30;;;;;;;23.02;33.29;101204.73;111094;1253;21946;-75
2024/04/13 11:15:53;;;;;;;7.00;2.70;;;;;;;22.89;33.70;101207.67;111310;1253;21962;-72
2024/04/13 11:18:22;;;;;;;11.70;2.90;;;;;;;22.79;33.99;101203.97;111317;1253;21952;-73
2024/04/13 11:20:54;;;;;;;8.10;2.60;;;;;;;22.65;34.10;101200.79;111336;1253;22830;-73
2024/04/13 11:23:27;;;;;;;8.10;2.70;;;;;;;22.60;34.62;101203.90;111163;1252;21984;-71
2024/04/13 11:25:56;;;;;;;9.50;3.10;;;;;;;22.55;34.58;101202.48;111294;1253;22416;-73
2024/04/13 11:28:25;;;;;;;9.20;3.20;;;;;;;22.48;34.98;101198.02;111289;1253;22931;-73